createdAt,value
2023-05-16T00:00:48.315Z,10.71
2023-05-16T00:03:20.593Z,9.76
2023-05-16T00:05:56.184Z,10.33
2023-05-16T00:08:28.770Z,10.93
2023-05-16T00:11:01.709Z,10.65
2023-05-16T00:13:34.183Z,10.08
2023-05-16T00:16:07.167Z,10.39
2023-05-16T00:18:40.387Z,10.16
2023-05-16T00:21:15.268Z,9.94
2023-05-16T00:23:47.432Z,10.56
2023-05-16T00:26:19.662Z,10.10
2023-05-16T00:28:52.907Z,10.56
2023-05-16T00:31:25.247Z,10.51
2023-05-16T00:33:57.718Z,9.84
2023-05-16T00:36:35.398Z,9.41
2023-05-16T00:39:07.748Z,11.76
2023-05-16T00:41:40.114Z,11.04
2023-05-16T00:44:12.399Z,9.83
2023-05-16T00:46:44.633Z,10.34
2023-05-16T00:49:17.173Z,9.90
2023-05-16T00:51:54.196Z,10.59
2023-05-16T00:54:29.828Z,9.91
2023-05-16T00:57:02.156Z,9.80
2023-05-16T00:59:34.504Z,10.02
2023-05-16T01:02:07.049Z,9.99
2023-05-16T01:04:42.725Z,10.53
2023-05-16T01:07:17.864Z,10.07
2023-05-16T01:09:50.498Z,9.81
2023-05-16T01:12:35.943Z,10.97
2023-05-16T01:15:16.204Z,10.07
2023-05-16T01:18:00.931Z,10.26
2023-05-16T01:20:48.413Z,10.16
2023-05-16T01:23:44.589Z,10.41
2023-05-16T01:26:23.949Z,10.35
2023-05-16T01:28:58.342Z,11.31
2023-05-16T01:31:30.804Z,10.68
2023-05-16T01:34:03.241Z,10.55
2023-05-16T01:36:43.609Z,9.79
2023-05-16T01:39:24.607Z,10.17
2023-05-16T01:42:09.671Z,10.79
2023-05-16T01:44:49.460Z,11.31
2023-05-16T01:47:25.690Z,11.11
2023-05-16T01:50:07.691Z,10.01
2023-05-16T01:52:46.598Z,10.81
2023-05-16T01:55:25.566Z,10.45
2023-05-16T01:58:02.758Z,10.89
2023-05-16T02:00:35.329Z,11.25
2023-05-16T02:03:07.826Z,10.48
2023-05-16T02:05:40.132Z,10.53
2023-05-16T02:08:13.603Z,11.14
2023-05-16T02:10:45.807Z,10.79
2023-05-16T02:13:20.672Z,10.23
2023-05-16T02:15:53.164Z,10.23
2023-05-16T02:18:26.221Z,10.29
2023-05-16T02:20:58.661Z,10.30
2023-05-16T02:23:30.987Z,10.36
2023-05-16T02:26:03.534Z,10.84
2023-05-16T02:28:39.004Z,11.38
2023-05-16T02:31:11.314Z,11.33
2023-05-16T02:33:43.532Z,11.05
2023-05-16T02:36:16.523Z,11.96
2023-05-16T02:38:48.851Z,10.99
2023-05-16T02:41:22.471Z,11.03
2023-05-16T02:43:57.304Z,11.95
2023-05-16T02:46:31.584Z,11.89
2023-05-16T02:49:04.422Z,11.33
2023-05-16T02:51:36.604Z,11.73
2023-05-16T02:54:10.097Z,11.75
2023-05-16T02:56:42.312Z,11.53
2023-05-16T02:59:17.427Z,11.37
2023-05-16T03:01:49.661Z,11.79
2023-05-16T03:04:23.069Z,11.91
2023-05-16T03:06:55.242Z,12.34
2023-05-16T03:09:27.665Z,11.66
2023-05-16T03:11:59.792Z,10.89
2023-05-16T03:14:34.528Z,11.49
2023-05-16T03:17:06.959Z,11.60
2023-05-16T03:19:39.667Z,11.41
2023-05-16T03:22:11.847Z,11.65
2023-05-16T03:24:45.157Z,10.54
2023-05-16T03:27:17.421Z,11.76
2023-05-16T03:29:52.207Z,11.01
2023-05-16T03:32:24.343Z,11.04
2023-05-16T03:34:56.506Z,11.54
2023-05-16T03:37:29.330Z,12.30
2023-05-16T03:40:01.592Z,12.60
2023-05-16T03:42:34.130Z,12.00
2023-05-16T03:45:10.799Z,11.83
2023-05-16T03:47:43.143Z,12.21
2023-05-16T03:50:15.661Z,11.88
2023-05-16T03:52:47.864Z,11.33
2023-05-16T03:55:20.203Z,11.32
2023-05-16T03:57:53.364Z,11.65
2023-05-16T04:00:28.205Z,12.54
2023-05-16T04:03:00.596Z,11.28
2023-05-16T04:05:32.833Z,11.92
2023-05-16T04:08:05.369Z,12.07
2023-05-16T04:10:37.546Z,11.92
2023-05-16T04:13:10.126Z,11.33
2023-05-16T04:15:44.904Z,11.96
2023-05-16T04:18:17.503Z,12.19
2023-05-16T04:20:50.480Z,12.34
2023-05-16T04:23:22.667Z,11.76
2023-05-16T04:25:55.422Z,12.94
2023-05-16T04:28:27.858Z,12.44
2023-05-16T04:31:03.287Z,13.30
2023-05-16T04:33:35.587Z,11.64
2023-05-16T04:36:08.829Z,11.89
2023-05-16T04:38:42.004Z,11.84
2023-05-16T04:41:14.195Z,12.96
2023-05-16T04:43:46.821Z,11.86
2023-05-16T04:46:22.234Z,12.21
2023-05-16T04:48:54.941Z,12.17
2023-05-16T04:51:27.346Z,11.57
2023-05-16T04:53:59.490Z,11.34
2023-05-16T04:56:31.651Z,11.50
2023-05-16T04:59:04.351Z,11.40
2023-05-16T05:01:39.923Z,11.85
2023-05-16T05:04:12.510Z,10.94
2023-05-16T05:06:44.678Z,10.90
2023-05-16T05:09:17.456Z,10.65
2023-05-16T05:11:49.632Z,10.92
2023-05-16T05:14:21.920Z,11.40
2023-05-16T05:16:56.698Z,11.51
2023-05-16T05:19:28.901Z,10.54
2023-05-16T05:22:01.046Z,10.70
2023-05-16T05:24:33.340Z,10.40
2023-05-16T05:27:05.755Z,10.34
2023-05-16T05:29:38.063Z,10.24
2023-05-16T05:32:12.949Z,10.83
2023-05-16T05:34:45.202Z,10.21
2023-05-16T05:37:17.598Z,10.39
2023-05-16T05:39:49.895Z,10.01
2023-05-16T05:42:22.095Z,10.77
2023-05-16T05:44:54.248Z,10.26
2023-05-16T05:47:29.138Z,9.66
2023-05-16T05:50:02.826Z,10.64
2023-05-16T05:52:35.011Z,9.92
2023-05-16T05:55:07.438Z,10.80
2023-05-16T05:57:39.618Z,10.59
2023-05-16T06:00:13.060Z,9.51
2023-05-16T06:02:47.976Z,9.69
2023-05-16T06:05:20.351Z,10.00
2023-05-16T06:07:52.622Z,8.88
2023-05-16T06:10:24.765Z,8.76
2023-05-16T06:12:56.990Z,8.59
2023-05-16T06:15:29.914Z,9.60
2023-05-16T06:18:05.019Z,7.67
2023-05-16T06:20:37.210Z,8.41
2023-05-16T06:23:09.472Z,8.17
2023-05-16T06:25:41.654Z,7.83
2023-05-16T06:28:14.068Z,7.45
2023-05-16T06:30:47.999Z,8.21
2023-05-16T06:33:22.873Z,7.47
2023-05-16T06:35:55.233Z,8.02
2023-05-16T06:38:27.459Z,8.64
2023-05-16T06:40:59.635Z,7.66
2023-05-16T06:43:31.849Z,7.20
2023-05-16T06:46:04.152Z,7.48
2023-05-16T06:48:39.155Z,6.66
2023-05-16T06:51:11.383Z,6.92
2023-05-16T06:53:43.708Z,7.30
2023-05-16T06:56:15.999Z,6.79
2023-05-16T06:58:49.699Z,6.96
2023-05-16T07:01:21.989Z,7.46
2023-05-16T07:03:56.963Z,7.02
2023-05-16T07:06:29.206Z,7.01
2023-05-16T07:09:02.446Z,6.70
2023-05-16T07:11:34.789Z,6.46
2023-05-16T07:14:07.080Z,6.23
2023-05-16T07:16:39.420Z,6.20
2023-05-16T07:19:14.280Z,6.41
2023-05-16T07:21:46.590Z,6.19
2023-05-16T07:24:18.803Z,5.84
2023-05-16T07:26:51.295Z,6.79
2023-05-16T07:29:23.852Z,6.49
2023-05-16T07:31:56.389Z,6.77
2023-05-16T07:34:31.694Z,6.27
2023-05-16T07:37:03.891Z,5.83
2023-05-16T07:39:36.383Z,5.34
2023-05-16T07:42:08.752Z,5.64
2023-05-16T07:44:41.029Z,6.24
2023-05-16T07:47:13.193Z,6.39
2023-05-16T07:49:48.180Z,6.49
2023-05-16T07:52:20.400Z,6.04
2023-05-16T07:54:52.511Z,6.28
2023-05-16T07:57:25.302Z,6.99
2023-05-16T07:59:58.107Z,6.38
2023-05-16T08:02:31.575Z,6.36
2023-05-16T08:05:06.522Z,6.65
2023-05-16T08:07:38.824Z,6.18
2023-05-16T08:10:13.794Z,6.47
2023-05-16T08:12:46.598Z,5.88
2023-05-16T08:15:18.946Z,6.31
2023-05-16T08:17:51.343Z,6.26
2023-05-16T08:20:26.125Z,6.28
2023-05-16T08:22:59.118Z,5.94
2023-05-16T08:25:31.709Z,6.24
2023-05-16T08:28:04.534Z,5.94
2023-05-16T08:30:36.749Z,5.77
2023-05-16T08:33:10.629Z,5.98
2023-05-16T08:35:46.958Z,6.30
2023-05-16T08:38:19.500Z,6.00
2023-05-16T08:40:51.702Z,6.80
2023-05-16T08:43:24.206Z,5.49
2023-05-16T08:45:56.946Z,6.15
2023-05-16T08:48:32.709Z,5.90
2023-05-16T08:51:13.660Z,7.01
2023-05-16T08:53:54.590Z,7.24
2023-05-16T08:56:28.886Z,6.29
2023-05-16T08:59:02.372Z,5.84
2023-05-16T09:01:35.158Z,6.65
2023-05-16T09:04:10.949Z,5.70
2023-05-16T09:06:45.777Z,6.21
2023-05-16T09:09:18.162Z,5.31
2023-05-16T09:11:50.939Z,5.74
2023-05-16T09:14:23.493Z,5.92
2023-05-16T09:17:11.519Z,4.94
2023-05-16T09:19:48.789Z,4.54
2023-05-16T09:22:23.787Z,4.89
2023-05-16T09:24:55.917Z,5.68
2023-05-16T09:27:28.412Z,5.04
2023-05-16T09:30:03.278Z,4.64
2023-05-16T09:32:36.169Z,4.78
2023-05-16T09:35:09.203Z,4.56
2023-05-16T09:37:49.558Z,4.71
2023-05-16T09:40:25.208Z,4.60
2023-05-16T09:43:08.044Z,4.55
2023-05-16T09:45:40.988Z,4.42
2023-05-16T09:48:16.011Z,4.64
2023-05-16T09:50:53.574Z,5.75
2023-05-16T09:53:35.829Z,5.93
2023-05-16T09:56:09.937Z,4.96
2023-05-16T09:58:44.019Z,4.66
2023-05-16T10:01:16.894Z,5.14
2023-05-16T10:03:49.952Z,4.87
2023-05-16T10:06:25.278Z,6.47
2023-05-16T10:09:02.945Z,5.49
2023-05-16T10:11:36.792Z,5.13
2023-05-16T10:14:10.936Z,4.76
2023-05-16T10:16:48.808Z,5.15
2023-05-16T10:19:24.351Z,4.61
2023-05-16T10:22:02.557Z,4.71
2023-05-16T10:24:47.595Z,4.71
2023-05-16T10:27:21.613Z,4.64
2023-05-16T10:29:55.922Z,5.29
2023-05-16T10:32:30.106Z,6.17
2023-05-16T10:35:03.444Z,5.83
2023-05-16T10:37:37.410Z,6.10
2023-05-16T10:40:15.853Z,5.64
2023-05-16T10:42:58.514Z,5.04
2023-05-16T10:45:31.290Z,4.99
2023-05-16T10:48:08.949Z,5.66
2023-05-16T10:50:43.989Z,5.57
2023-05-16T10:53:22.617Z,5.46
2023-05-16T10:56:12.076Z,5.40
2023-05-16T10:58:46.205Z,5.64
2023-05-16T11:01:23.780Z,6.15
2023-05-16T11:04:10.317Z,5.71
2023-05-16T11:06:54.854Z,5.39
2023-05-16T11:09:30.041Z,5.34
2023-05-16T11:12:06.706Z,5.44
2023-05-16T11:14:47.821Z,6.25
2023-05-16T11:17:27.803Z,5.01
2023-05-16T11:20:04.203Z,4.70
2023-05-16T11:22:37.558Z,5.41
2023-05-16T11:25:12.164Z,4.53
2023-05-16T11:27:51.500Z,4.03
2023-05-16T11:30:24.905Z,4.91
2023-05-16T11:32:59.341Z,4.26
2023-05-16T11:35:31.790Z,4.63
2023-05-16T11:38:04.056Z,4.46
2023-05-16T11:40:36.399Z,4.84
2023-05-16T11:43:11.661Z,4.53
2023-05-16T11:45:43.919Z,4.79
2023-05-16T11:48:24.734Z,5.69
2023-05-16T11:51:05.118Z,4.56
2023-05-16T11:53:38.391Z,5.64
2023-05-16T11:56:13.076Z,5.54
2023-05-16T11:58:48.613Z,4.98
2023-05-16T12:01:20.789Z,5.49
2023-05-16T12:03:59.798Z,5.17
2023-05-16T12:06:32.601Z,5.76
2023-05-16T12:09:10.626Z,5.93
2023-05-16T12:11:43.397Z,5.24
2023-05-16T12:14:19.188Z,5.89
2023-05-16T12:16:52.202Z,5.30
2023-05-16T12:19:25.877Z,5.41
2023-05-16T12:21:59.108Z,5.85
2023-05-16T12:24:34.691Z,4.81
2023-05-16T12:27:06.947Z,5.77
2023-05-16T12:29:42.026Z,5.42
2023-05-16T12:32:14.316Z,5.64
2023-05-16T12:34:54.988Z,4.79
2023-05-16T12:37:27.274Z,5.86
2023-05-16T12:40:04.463Z,5.94
2023-05-16T12:42:37.059Z,6.14
2023-05-16T12:45:19.792Z,6.21
2023-05-16T12:47:52.260Z,6.05
2023-05-16T12:50:24.869Z,6.16
2023-05-16T12:52:59.056Z,6.11
2023-05-16T12:55:31.309Z,6.29
2023-05-16T12:58:05.531Z,6.29
2023-05-16T13:00:41.034Z,6.34
2023-05-16T13:03:13.318Z,6.19
2023-05-16T13:05:45.969Z,5.79
2023-05-16T13:08:18.253Z,6.93
2023-05-16T13:10:50.937Z,6.26
2023-05-16T13:13:35.509Z,5.91
2023-05-16T13:16:11.466Z,6.13
2023-05-16T13:18:43.788Z,6.78
2023-05-16T13:21:16.302Z,6.11
2023-05-16T13:23:48.516Z,6.19
2023-05-16T13:26:21.816Z,6.11
2023-05-16T13:28:55.286Z,6.44
2023-05-16T13:31:30.160Z,5.81
2023-05-16T13:34:02.372Z,6.76
2023-05-16T13:36:49.398Z,6.09
2023-05-16T13:39:26.032Z,6.29
2023-05-16T13:42:00.180Z,5.70
2023-05-16T13:44:32.550Z,5.89
2023-05-16T13:47:08.001Z,6.13
2023-05-16T13:49:40.313Z,5.94
2023-05-16T13:52:12.625Z,6.72
2023-05-16T13:54:45.128Z,5.76
2023-05-16T13:57:17.422Z,6.21
2023-05-16T14:00:11.522Z,5.68
2023-05-16T14:02:45.124Z,5.76
2023-05-16T14:05:17.376Z,6.13
2023-05-16T14:07:49.596Z,5.84
2023-05-16T14:10:21.852Z,6.69
2023-05-16T14:12:54.210Z,6.86
2023-05-16T14:15:26.901Z,5.43
2023-05-16T14:18:04.170Z,6.16
2023-05-16T14:20:36.379Z,5.31
2023-05-16T14:23:08.643Z,6.30
2023-05-16T14:25:40.945Z,6.06
2023-05-16T14:28:13.366Z,6.54
2023-05-16T14:30:47.913Z,6.74
2023-05-16T14:33:22.927Z,6.94
2023-05-16T14:35:55.139Z,6.03
2023-05-16T14:38:28.242Z,6.10
2023-05-16T14:41:00.523Z,5.69
2023-05-16T14:43:32.671Z,6.44
2023-05-16T14:46:04.893Z,6.24
2023-05-16T14:48:39.903Z,5.24
2023-05-16T14:51:12.235Z,5.94
2023-05-16T14:53:46.777Z,5.44
2023-05-16T14:56:20.415Z,5.43
2023-05-16T14:58:52.780Z,5.82
2023-05-16T15:01:25.476Z,4.85
2023-05-16T15:04:00.375Z,5.85
2023-05-16T15:06:32.511Z,5.96
2023-05-16T15:09:05.998Z,5.62
2023-05-16T15:11:38.181Z,5.34
2023-05-16T15:14:11.227Z,5.16
2023-05-16T15:16:43.464Z,5.21
2023-05-16T15:19:18.564Z,5.95
2023-05-16T15:21:50.832Z,5.42
2023-05-16T15:24:23.346Z,5.72
2023-05-16T15:26:55.689Z,5.17
2023-05-16T15:29:28.067Z,6.05
2023-05-16T15:32:00.420Z,5.68
2023-05-16T15:34:35.302Z,5.79
2023-05-16T15:37:07.675Z,5.79
2023-05-16T15:39:40.169Z,5.49
2023-05-16T15:42:13.011Z,5.50
2023-05-16T15:44:45.333Z,5.30
2023-05-16T15:47:17.638Z,5.52
2023-05-16T15:49:52.644Z,6.29
2023-05-16T15:52:24.875Z,5.59
2023-05-16T15:54:57.091Z,5.89
2023-05-16T15:57:29.305Z,5.85
2023-05-16T16:00:01.731Z,6.41
2023-05-16T16:02:33.999Z,7.86
2023-05-16T16:05:09.338Z,6.99
2023-05-16T16:07:41.475Z,7.26
2023-05-16T16:10:14.919Z,8.19
2023-05-16T16:12:47.083Z,8.83
2023-05-16T16:15:19.936Z,7.54
2023-05-16T16:17:52.207Z,7.03
2023-05-16T16:20:27.168Z,7.81
2023-05-16T16:22:59.378Z,8.06
2023-05-16T16:25:31.589Z,7.54
2023-05-16T16:28:04.078Z,8.88
2023-05-16T16:30:36.321Z,9.71
2023-05-16T16:33:08.565Z,9.59
2023-05-16T16:35:43.443Z,10.13
2023-05-16T16:38:15.957Z,12.41
2023-05-16T16:40:48.186Z,13.12
2023-05-16T16:43:20.410Z,13.16
2023-05-16T16:45:52.644Z,12.76
2023-05-16T16:48:24.937Z,12.68
2023-05-16T16:50:59.720Z,13.67
2023-05-16T16:53:32.532Z,13.84
2023-05-16T16:56:04.775Z,14.38
2023-05-16T16:58:37.064Z,13.56
2023-05-16T17:01:10.013Z,13.65
2023-05-16T17:03:42.370Z,13.42
2023-05-16T17:06:17.169Z,13.59
2023-05-16T17:08:49.700Z,13.91
2023-05-16T17:11:23.628Z,14.54
2023-05-16T17:13:59.446Z,13.84
2023-05-16T17:16:31.742Z,14.96
2023-05-16T17:19:04.785Z,14.89
2023-05-16T17:21:40.938Z,15.04
2023-05-16T17:24:13.632Z,17.13
2023-05-16T17:26:46.009Z,15.94
2023-05-16T17:29:18.323Z,17.73
2023-05-16T17:31:50.592Z,16.99
2023-05-16T17:34:23.521Z,16.55
2023-05-16T17:36:58.342Z,17.93
2023-05-16T17:39:30.606Z,18.56
2023-05-16T17:42:02.906Z,15.51
2023-05-16T17:44:35.165Z,13.46
2023-05-16T17:47:07.434Z,15.16
2023-05-16T17:49:39.684Z,13.54
2023-05-16T17:52:15.243Z,13.03
2023-05-16T17:54:47.444Z,13.08
2023-05-16T17:57:19.876Z,13.30
2023-05-16T17:59:52.101Z,13.02
2023-05-16T18:02:24.348Z,12.46
2023-05-16T18:04:56.590Z,11.71
2023-05-16T18:07:31.547Z,10.85
2023-05-16T18:10:03.796Z,12.03
2023-05-16T18:12:36.210Z,10.34
2023-05-16T18:15:09.199Z,9.20
2023-05-16T18:17:41.503Z,9.69
2023-05-16T18:20:15.385Z,9.28
2023-05-16T18:22:51.821Z,9.69
2023-05-16T18:25:25.500Z,9.41
2023-05-16T18:27:57.819Z,9.11
2023-05-16T18:30:30.737Z,9.75
2023-05-16T18:33:03.977Z,10.51
2023-05-16T18:35:36.178Z,9.22
2023-05-16T18:38:17.394Z,9.79
2023-05-16T18:40:56.988Z,11.62
2023-05-16T18:43:29.250Z,10.14
2023-05-16T18:46:01.479Z,10.72
2023-05-16T18:48:35.908Z,11.36
2023-05-16T18:51:08.910Z,11.71
2023-05-16T18:53:43.653Z,10.61
2023-05-16T18:56:15.917Z,10.98
2023-05-16T18:58:48.185Z,10.84
2023-05-16T19:01:22.475Z,11.15
2023-05-16T19:03:55.087Z,10.19
2023-05-16T19:06:27.492Z,10.53
2023-05-16T19:09:02.284Z,11.96
2023-05-16T19:11:34.424Z,11.85
2023-05-16T19:14:06.864Z,11.71
2023-05-16T19:16:39.479Z,11.79
2023-05-16T19:19:11.834Z,11.72
2023-05-16T19:21:44.237Z,11.42
2023-05-16T19:24:19.324Z,13.49
2023-05-16T19:26:51.624Z,13.16
2023-05-16T19:29:23.870Z,12.24
2023-05-16T19:31:56.200Z,14.86
2023-05-16T19:34:28.761Z,15.27
2023-05-16T19:37:02.733Z,14.18
2023-05-16T19:39:37.816Z,13.51
2023-05-16T19:42:10.736Z,13.64
2023-05-16T19:44:43.036Z,14.06
2023-05-16T19:47:15.328Z,14.77
2023-05-16T19:49:47.795Z,13.65
2023-05-16T19:52:20.065Z,14.02
2023-05-16T19:54:54.869Z,14.14
2023-05-16T19:57:27.212Z,14.41
2023-05-16T19:59:59.405Z,15.26
2023-05-16T20:02:31.744Z,15.26
2023-05-16T20:05:04.678Z,14.79
2023-05-16T20:07:37.038Z,13.69
2023-05-16T20:10:13.671Z,15.24
2023-05-16T20:12:45.993Z,14.29
2023-05-16T20:15:19.070Z,14.49
2023-05-16T20:17:51.446Z,15.23
2023-05-16T20:20:23.874Z,15.96
2023-05-16T20:22:56.212Z,16.89
2023-05-16T20:25:32.327Z,15.14
2023-05-16T20:28:04.737Z,17.37
2023-05-16T20:30:37.233Z,16.94
2023-05-16T20:33:09.624Z,15.69
2023-05-16T20:35:41.855Z,17.84
2023-05-16T20:38:14.238Z,18.19
2023-05-16T20:40:49.378Z,18.41
2023-05-16T20:43:21.684Z,16.69
2023-05-16T20:45:53.964Z,17.36
2023-05-16T20:48:26.633Z,17.72
2023-05-16T20:50:59.125Z,18.02
2023-05-16T20:53:34.439Z,18.05
2023-05-16T20:56:09.742Z,18.53
2023-05-16T20:58:42.391Z,18.88
2023-05-16T21:01:14.672Z,20.79
2023-05-16T21:03:46.935Z,18.87
2023-05-16T21:06:19.180Z,19.29
2023-05-16T21:08:51.618Z,19.44
2023-05-16T21:11:27.830Z,19.64
2023-05-16T21:14:00.074Z,19.82
2023-05-16T21:16:32.791Z,20.36
2023-05-16T21:19:05.365Z,20.89
2023-05-16T21:21:37.749Z,19.91
2023-05-16T21:24:10.594Z,21.02
2023-05-16T21:26:45.471Z,20.40
2023-05-16T21:29:17.943Z,21.94
2023-05-16T21:31:50.194Z,22.32
2023-05-16T21:34:22.442Z,21.15
2023-05-16T21:36:54.657Z,20.84
2023-05-16T21:39:26.992Z,19.83
2023-05-16T21:42:01.809Z,20.34
2023-05-16T21:44:34.273Z,21.71
2023-05-16T21:47:06.502Z,21.59
2023-05-16T21:49:38.952Z,23.48
2023-05-16T21:52:11.548Z,23.05
2023-05-16T21:54:43.780Z,22.34
2023-05-16T21:57:18.599Z,23.45
2023-05-16T21:59:51.932Z,24.11
2023-05-16T22:02:24.208Z,23.97
2023-05-16T22:04:57.365Z,23.41
2023-05-16T22:07:30.356Z,24.89
2023-05-16T22:10:03.310Z,24.51
2023-05-16T22:12:38.117Z,25.83
2023-05-16T22:15:11.512Z,25.63
2023-05-16T22:17:44.232Z,25.99
2023-05-16T22:20:17.268Z,25.54
2023-05-16T22:22:50.919Z,26.58
2023-05-16T22:25:23.231Z,25.19
2023-05-16T22:27:58.100Z,27.62
2023-05-16T22:30:30.278Z,26.37
2023-05-16T22:33:03.916Z,26.82
2023-05-16T22:35:36.258Z,26.25
2023-05-16T22:38:08.554Z,26.41
2023-05-16T22:40:41.331Z,25.95
2023-05-16T22:43:16.257Z,25.78
2023-05-16T22:45:51.654Z,24.85
2023-05-16T22:48:23.994Z,27.28
2023-05-16T22:50:56.277Z,27.74
2023-05-16T22:53:28.604Z,28.45
2023-05-16T22:56:00.981Z,27.65
2023-05-16T22:58:35.868Z,27.48
2023-05-16T23:01:08.700Z,29.36
2023-05-16T23:03:41.115Z,28.76
2023-05-16T23:06:13.303Z,28.98
2023-05-16T23:08:45.885Z,29.19
2023-05-16T23:11:19.920Z,29.24
2023-05-16T23:13:54.724Z,28.38
2023-05-16T23:16:27.010Z,30.37
2023-05-16T23:18:59.549Z,29.26
2023-05-16T23:21:32.118Z,28.34
2023-05-16T23:24:04.346Z,31.50
2023-05-16T23:26:36.577Z,29.89
2023-05-16T23:29:11.570Z,30.46
2023-05-16T23:31:43.796Z,30.09
2023-05-16T23:34:16.178Z,29.62
2023-05-16T23:36:48.369Z,31.74
2023-05-16T23:39:21.672Z,30.89
2023-05-16T23:41:53.854Z,30.66
2023-05-16T23:44:31.600Z,30.47
2023-05-16T23:47:03.891Z,31.29
2023-05-16T23:49:36.300Z,32.01
2023-05-16T23:52:10.107Z,31.02
2023-05-16T23:54:42.308Z,31.02
2023-05-16T23:57:14.516Z,31.06
2023-05-16T23:59:49.351Z,32.83
